| time (UTC) | temp C | wind direction | speed KPH | gust KPH | rain 1hr cm | rain 24hr cm | rain mn cm | humidity % | barometer mb |
| 20260510010043 | 19 | 0 | 0.0 | 1.6 | 0.00 | 0.00 | 0.00 | 67 | 1011.9 |
| 20260510004547 | 20 | 0 | 0.0 | 1.6 | 0.00 | 0.00 | 0.00 | 65 | 1011.8 |
| 20260510003042 | 21 | 0 | 0.0 | 0.0 | 0.00 | 0.00 | 0.00 | 61 | 1011.5 |
| 20260510001541 | 22 | 0 | 0.0 | 1.6 | 0.00 | 0.00 | 0.00 | 58 | 1011.5 |
| 20260510000037 | 23 | 0 | 0.0 | 1.6 | 0.00 | 0.00 | 0.00 | 53 | 1011.5 |
| 20260509234542 | 25 | 0 | 0.0 | 3.2 | 0.00 | 0.00 | 0.00 | 48 | 1011.4 |
| 20260509233044 | 25 | 41 | 3.2 | 8.0 | 0.00 | 0.00 | 0.00 | 44 | 1011.3 |
| 20260509231543 | 26 | 49 | 1.6 | 6.4 | 0.00 | 0.00 | 0.00 | 42 | 1011.2 |
| 20260509230050 | 26 | 40 | 0.0 | 4.8 | 0.00 | 0.00 | 0.00 | 43 | 1011.1 |
| 20260509224545 | 26 | 73 | 1.6 | 6.4 | 0.00 | 0.00 | 0.00 | 44 | 1011.0 |
| 20260509223039 | 26 | 0 | 1.6 | 8.0 | 0.00 | 0.00 | 0.00 | 43 | 1011.0 |
| 20260509221543 | 26 | 0 | 1.6 | 6.4 | 0.00 | 0.00 | 0.00 | 43 | 1010.8 |
| 20260509220046 | 26 | 20 | 3.2 | 6.4 | 0.00 | 0.00 | 0.00 | 44 | 1011.1 |
| 20260509214536 | 25 | 0 | 1.6 | 8.0 | 0.00 | 0.00 | 0.00 | 44 | 1010.8 |
| 20260509213043 | 26 | 103 | 3.2 | 11.3 | 0.00 | 0.00 | 0.00 | 43 | 1010.7 |
| 20260509211540 | 26 | 67 | 3.2 | 9.7 | 0.00 | 0.00 | 0.00 | 43 | 1010.6 |
| 20260509210044 | 26 | 107 | 3.2 | 9.7 | 0.00 | 0.00 | 0.00 | 43 | 1010.5 |
| 20260509204545 | 26 | 86 | 0.0 | 6.4 | 0.00 | 0.00 | 0.00 | 44 | 1010.6 |
| 20260509203043 | 26 | 65 | 1.6 | 3.2 | 0.00 | 0.00 | 0.00 | 44 | 1010.6 |
| 20260509201543 | 25 | 23 | 4.8 | 12.9 | 0.00 | 0.00 | 0.00 | 45 | 1010.8 |
| 20260509200037 | 26 | 0 | 3.2 | 8.0 | 0.00 | 0.00 | 0.00 | 47 | 1010.8 |
| 20260509194538 | 26 | 103 | 3.2 | 8.0 | 0.00 | 0.00 | 0.00 | 48 | 1011.1 |
| 20260509193042 | 25 | 34 | 3.2 | 9.7 | 0.00 | 0.00 | 0.00 | 50 | 1011.2 |
| 20260509191540 | 25 | 61 | 8.0 | 14.5 | 0.00 | 0.00 | 0.00 | 50 | 1011.2 |
| 20260509190045 | 25 | 140 | 3.2 | 14.5 | 0.00 | 0.00 | 0.00 | 52 | 1011.3 |
| 20260509184551 | 25 | 11 | 4.8 | 11.3 | 0.00 | 0.00 | 0.00 | 51 | 1011.5 |
| 20260509183037 | 25 | 44 | 4.8 | 12.9 | 0.00 | 0.00 | 0.00 | 53 | 1011.4 |
| 20260509181551 | 25 | 37 | 4.8 | 9.7 | 0.00 | 0.00 | 0.00 | 52 | 1011.3 |
| 20260509180043 | 24 | 34 | 3.2 | 14.5 | 0.00 | 0.00 | 0.00 | 52 | 1011.4 |
| 20260509174545 | 24 | 45 | 0.0 | 8.0 | 0.00 | 0.00 | 0.00 | 57 | 1011.2 |
| 20260509173042 | 23 | 111 | 4.8 | 8.0 | 0.00 | 0.00 | 0.00 | 56 | 1011.4 |
| 20260509171538 | 24 | 41 | 1.6 | 6.4 | 0.00 | 0.00 | 0.00 | 58 | 1011.3 |
| 20260509170048 | 23 | 113 | 3.2 | 8.0 | 0.00 | 0.00 | 0.00 | 59 | 1011.4 |
| 20260509164542 | 23 | 53 | 0.0 | 4.8 | 0.00 | 0.00 | 0.00 | 60 | 1011.4 |
| 20260509163043 | 22 | 30 | 1.6 | 14.5 | 0.00 | 0.00 | 0.00 | 62 | 1011.5 |
| 20260509161540 | 22 | 115 | 1.6 | 4.8 | 0.00 | 0.00 | 0.00 | 63 | 1011.3 |
| 20260509160039 | 22 | 117 | 3.2 | 9.7 | 0.00 | 0.00 | 0.00 | 65 | 1011.4 |
| 20260509154543 | 21 | 32 | 4.8 | 12.9 | 0.00 | 0.00 | 0.00 | 67 | 1011.6 |
| 20260509153058 | 20 | 51 | 1.6 | 9.7 | 0.00 | 0.00 | 0.00 | 71 | 1011.3 |
| 20260509151547 | 20 | 80 | 3.2 | 8.0 | 0.00 | 0.00 | 0.00 | 73 | 1011.3 |
| 20260509150046 | 19 | 68 | 3.2 | 9.7 | 0.00 | 0.00 | 0.00 | 75 | 1011.2 |
| 20260509144538 | 18 | 23 | 4.8 | 11.3 | 0.00 | 0.00 | 0.00 | 79 | 1011.3 |
| 20260509143039 | 18 | 49 | 4.8 | 11.3 | 0.00 | 0.00 | 0.00 | 82 | 1011.1 |
| 20260509141539 | 17 | 46 | 8.0 | 17.7 | 0.00 | 0.00 | 0.00 | 83 | 1011.1 |
| 20260509140048 | 17 | 20 | 9.7 | 19.3 | 0.00 | 0.00 | 0.00 | 84 | 1010.9 |
| 20260509134541 | 16 | 94 | 4.8 | 11.3 | 0.00 | 0.00 | 0.00 | 87 | 1010.8 |
| 20260509133040 | 15 | 98 | 4.8 | 14.5 | 0.00 | 0.00 | 0.00 | 89 | 1011.1 |
| 20260509131540 | 14 | 26 | 3.2 | 12.9 | 0.00 | 0.00 | 0.00 | 92 | 1011.0 |
| 20260509130042 | 13 | 31 | 3.2 | 14.5 | 0.00 | 0.00 | 0.00 | 94 | 1011.0 |
| 20260509124538 | 13 | 87 | 6.4 | 17.7 | 0.00 | 0.00 | 0.00 | 95 | 1011.0 |
| 20260509123040 | 12 | 36 | 6.4 | 14.5 | 0.00 | 0.00 | 0.00 | 95 | 1011.1 |
| 20260509121541 | 12 | 56 | 4.8 | 12.9 | 0.00 | 0.00 | 0.00 | 95 | 1011.2 |
| 20260509120043 | 12 | 27 | 4.8 | 12.9 | 0.00 | 0.00 | 0.00 | 96 | 1010.8 |
| 20260509114538 | 11 | 56 | 1.6 | 6.4 | 0.00 | 0.00 | 0.00 | 96 | 1010.4 |
| 20260509113042 | 11 | 20 | 1.6 | 8.0 | 0.00 | 0.00 | 0.00 | 96 | 1010.2 |
| 20260509111542 | 11 | 49 | 1.6 | 8.0 | 0.00 | 0.00 | 0.00 | 95 | 1009.9 |
| 20260509110044 | 11 | 27 | 3.2 | 8.0 | 0.00 | 0.00 | 0.00 | 95 | 1009.8 |
| 20260509104540 | 11 | 0 | 0.0 | 3.2 | 0.00 | 0.00 | 0.00 | 95 | 1009.8 |
| 20260509103040 | 11 | 37 | 0.0 | 1.6 | 0.00 | 0.00 | 0.00 | 94 | 1009.9 |
| 20260509101545 | 11 | 37 | 0.0 | 1.6 | 0.00 | 0.00 | 0.00 | 94 | 1009.9 |
| 20260509100045 | 11 | 0 | 0.0 | 1.6 | 0.00 | 0.00 | 0.00 | 93 | 1009.9 |
| 20260509094541 | 11 | 0 | 0.0 | 1.6 | 0.00 | 0.00 | 0.00 | 93 | 1010.1 |
| 20260509093042 | 11 | 37 | 0.0 | 3.2 | 0.00 | 0.00 | 0.00 | 92 | 1010.1 |
| 20260509091540 | 12 | 0 | 0.0 | 1.6 | 0.00 | 0.00 | 0.00 | 91 | 1010.3 |
| 20260509090041 | 12 | 42 | 0.0 | 3.2 | 0.00 | 0.00 | 0.00 | 90 | 1010.4 |
| 20260509084547 | 12 | 0 | 0.0 | 3.2 | 0.00 | 0.00 | 0.00 | 90 | 1010.4 |
| 20260509083039 | 12 | 0 | 0.0 | 6.4 | 0.00 | 0.00 | 0.00 | 90 | 1010.2 |
| 20260509081537 | 12 | 44 | 0.0 | 4.8 | 0.00 | 0.00 | 0.00 | 90 | 1010.1 |
| 20260509080043 | 12 | 0 | 1.6 | 4.8 | 0.00 | 0.00 | 0.00 | 89 | 1010.4 |
| 20260509074543 | 12 | 41 | 0.0 | 1.6 | 0.00 | 0.00 | 0.00 | 89 | 1010.1 |
| 20260509073112 | 12 | 0 | 0.0 | 1.6 | 0.00 | 0.00 | 0.00 | 89 | 1010.1 |
| 20260509071543 | 12 | 0 | 0.0 | 4.8 | 0.00 | 0.00 | 0.00 | 89 | 1009.8 |
| 20260509070041 | 11 | 0 | 0.0 | 1.6 | 0.00 | 0.00 | 0.00 | 90 | 1010.5 |
| 20260509064539 | 11 | 46 | 0.0 | 1.6 | 0.00 | 0.00 | 0.00 | 89 | 1010.7 |
| 20260509063042 | 12 | 0 | 0.0 | 1.6 | 0.00 | 0.00 | 0.00 | 88 | 1011.0 |
| 20260509061543 | 12 | 0 | 0.0 | 1.6 | 0.00 | 0.00 | 0.00 | 86 | 1011.1 |
| 20260509060052 | 12 | 0 | 0.0 | 1.6 | 0.00 | 0.00 | 0.00 | 85 | 1011.4 |
| 20260509054547 | 13 | 0 | 0.0 | 3.2 | 0.00 | 0.00 | 0.00 | 82 | 1011.3 |
| 20260509053042 | 13 | 46 | 0.0 | 3.2 | 0.00 | 0.00 | 0.00 | 81 | 1011.3 |
| 20260509051543 | 13 | 53 | 1.6 | 9.7 | 0.00 | 0.00 | 0.00 | 80 | 1011.4 |
| 20260509050050 | 14 | 43 | 1.6 | 6.4 | 0.00 | 0.00 | 0.00 | 78 | 1011.5 |
| 20260509044542 | 14 | 41 | 1.6 | 4.8 | 0.00 | 0.00 | 0.00 | 77 | 1011.1 |
| 20260509043038 | 15 | 15 | 1.6 | 9.7 | 0.00 | 0.00 | 0.00 | 76 | 1011.0 |
| 20260509041538 | 15 | 45 | 3.2 | 8.0 | 0.00 | 0.00 | 0.00 | 74 | 1011.2 |
| 20260509040050 | 15 | 39 | 1.6 | 4.8 | 0.00 | 0.00 | 0.00 | 73 | 1011.3 |
| 20260509034549 | 15 | 43 | 1.6 | 12.9 | 0.00 | 0.00 | 0.00 | 72 | 1011.2 |
| 20260509033041 | 15 | 38 | 1.6 | 6.4 | 0.00 | 0.00 | 0.00 | 71 | 1011.3 |
| 20260509031541 | 15 | 39 | 3.2 | 11.3 | 0.00 | 0.00 | 0.00 | 70 | 1011.4 |
| 20260509030037 | 15 | 0 | 1.6 | 4.8 | 0.00 | 0.00 | 0.00 | 69 | 1011.5 |
| 20260509024548 | 15 | 44 | 0.0 | 3.2 | 0.00 | 0.00 | 0.00 | 68 | 1011.4 |
| 20260509023045 | 16 | 0 | 0.0 | 3.2 | 0.00 | 0.00 | 0.00 | 67 | 1011.3 |
| 20260509021545 | 16 | 44 | 0.0 | 1.6 | 0.00 | 0.00 | 0.00 | 67 | 1011.3 |
| 20260509020041 | 16 | 0 | 0.0 | 3.2 | 0.00 | 0.00 | 0.00 | 64 | 1011.3 |
| 20260509014536 | 16 | 0 | 0.0 | 3.2 | 0.00 | 0.00 | 0.00 | 64 | 1011.4 |
| 20260509013038 | 17 | 0 | 0.0 | 4.8 | 0.00 | 0.00 | 0.00 | 64 | 1011.4 |
| 20260509011555 | 17 | 43 | 0.0 | 1.6 | 0.00 | 0.00 | 0.00 | 64 | 1011.1 |